sensor_id;sensor_type;location;lat;lon;timestamp;temperature;humidity
80676;SHT30;70041;46.088;18.268;2024-03-22T00:00:02;10.37;67.85
80676;SHT30;70041;46.088;18.268;2024-03-22T00:02:28;10.29;68.44
80676;SHT30;70041;46.088;18.268;2024-03-22T00:04:53;10.24;66.60
80676;SHT30;70041;46.088;18.268;2024-03-22T00:07:19;10.30;68.71
80676;SHT30;70041;46.088;18.268;2024-03-22T00:09:44;10.28;67.60
80676;SHT30;70041;46.088;18.268;2024-03-22T00:12:09;10.17;68.08
80676;SHT30;70041;46.088;18.268;2024-03-22T00:14:35;10.17;67.81
80676;SHT30;70041;46.088;18.268;2024-03-22T00:17:00;10.02;67.92
80676;SHT30;70041;46.088;18.268;2024-03-22T00:19:26;9.86;68.12
80676;SHT30;70041;46.088;18.268;2024-03-22T00:21:51;9.83;69.74
80676;SHT30;70041;46.088;18.268;2024-03-22T00:24:16;9.68;69.59
80676;SHT30;70041;46.088;18.268;2024-03-22T00:26:42;9.59;70.46
80676;SHT30;70041;46.088;18.268;2024-03-22T00:29:07;9.54;71.23
80676;SHT30;70041;46.088;18.268;2024-03-22T00:31:33;9.51;70.89
80676;SHT30;70041;46.088;18.268;2024-03-22T00:33:58;9.49;70.57
80676;SHT30;70041;46.088;18.268;2024-03-22T00:36:24;9.48;70.39
80676;SHT30;70041;46.088;18.268;2024-03-22T00:38:49;9.45;69.88
80676;SHT30;70041;46.088;18.268;2024-03-22T00:41:14;9.52;69.51
80676;SHT30;70041;46.088;18.268;2024-03-22T00:43:40;9.62;69.53
80676;SHT30;70041;46.088;18.268;2024-03-22T00:46:05;9.65;69.20
80676;SHT30;70041;46.088;18.268;2024-03-22T00:48:31;9.69;69.14
80676;SHT30;70041;46.088;18.268;2024-03-22T00:50:56;9.75;69.37
80676;SHT30;70041;46.088;18.268;2024-03-22T00:53:21;9.74;69.36
80676;SHT30;70041;46.088;18.268;2024-03-22T00:55:47;9.79;69.00
80676;SHT30;70041;46.088;18.268;2024-03-22T00:58:19;9.83;69.46
80676;SHT30;70041;46.088;18.268;2024-03-22T01:00:45;9.79;70.05
80676;SHT30;70041;46.088;18.268;2024-03-22T01:03:10;9.71;70.89
80676;SHT30;70041;46.088;18.268;2024-03-22T01:05:36;9.69;70.47
80676;SHT30;70041;46.088;18.268;2024-03-22T01:08:01;9.67;70.91
80676;SHT30;70041;46.088;18.268;2024-03-22T01:10:27;9.77;70.14
80676;SHT30;70041;46.088;18.268;2024-03-22T01:12:52;9.85;69.38
80676;SHT30;70041;46.088;18.268;2024-03-22T01:15:18;9.92;69.78
80676;SHT30;70041;46.088;18.268;2024-03-22T01:17:43;9.95;68.77
80676;SHT30;70041;46.088;18.268;2024-03-22T01:20:09;10.03;68.62
80676;SHT30;70041;46.088;18.268;2024-03-22T01:22:35;10.05;68.47
80676;SHT30;70041;46.088;18.268;2024-03-22T01:25:00;9.99;69.68
80676;SHT30;70041;46.088;18.268;2024-03-22T01:27:26;10.05;69.77
80676;SHT30;70041;46.088;18.268;2024-03-22T01:29:51;10.13;69.36
80676;SHT30;70041;46.088;18.268;2024-03-22T01:32:16;10.20;69.17
80676;SHT30;70041;46.088;18.268;2024-03-22T01:34:42;10.33;68.88
80676;SHT30;70041;46.088;18.268;2024-03-22T01:37:07;10.40;67.77
80676;SHT30;70041;46.088;18.268;2024-03-22T01:39:33;10.34;67.58
80676;SHT30;70041;46.088;18.268;2024-03-22T01:41:58;10.36;67.65
80676;SHT30;70041;46.088;18.268;2024-03-22T01:44:28;10.32;68.84
80676;SHT30;70041;46.088;18.268;2024-03-22T01:46:53;10.23;68.64
80676;SHT30;70041;46.088;18.268;2024-03-22T01:49:19;10.22;69.68
80676;SHT30;70041;46.088;18.268;2024-03-22T01:51:46;10.22;70.92
80676;SHT30;70041;46.088;18.268;2024-03-22T01:54:11;10.23;67.85
80676;SHT30;70041;46.088;18.268;2024-03-22T01:56:37;10.22;68.00
80676;SHT30;70041;46.088;18.268;2024-03-22T01:59:04;10.16;70.32
80676;SHT30;70041;46.088;18.268;2024-03-22T02:01:30;10.17;68.62
80676;SHT30;70041;46.088;18.268;2024-03-22T02:03:55;10.22;67.73
80676;SHT30;70041;46.088;18.268;2024-03-22T02:06:21;10.26;68.63
80676;SHT30;70041;46.088;18.268;2024-03-22T02:08:46;10.30;66.14
80676;SHT30;70041;46.088;18.268;2024-03-22T02:11:12;10.39;66.23
80676;SHT30;70041;46.088;18.268;2024-03-22T02:13:37;10.47;65.33
80676;SHT30;70041;46.088;18.268;2024-03-22T02:16:03;10.53;68.09
80676;SHT30;70041;46.088;18.268;2024-03-22T02:18:29;10.46;69.40
80676;SHT30;70041;46.088;18.268;2024-03-22T02:20:54;10.37;69.21
80676;SHT30;70041;46.088;18.268;2024-03-22T02:23:32;10.34;69.49
80676;SHT30;70041;46.088;18.268;2024-03-22T02:26:00;10.36;69.24
80676;SHT30;70041;46.088;18.268;2024-03-22T02:28:26;10.33;69.10
80676;SHT30;70041;46.088;18.268;2024-03-22T02:30:52;10.29;69.37
80676;SHT30;70041;46.088;18.268;2024-03-22T02:33:17;10.26;69.66
80676;SHT30;70041;46.088;18.268;2024-03-22T02:35:43;10.29;69.60
80676;SHT30;70041;46.088;18.268;2024-03-22T02:38:08;10.30;69.76
80676;SHT30;70041;46.088;18.268;2024-03-22T02:40:34;10.39;67.73
80676;SHT30;70041;46.088;18.268;2024-03-22T02:42:59;10.43;69.05
80676;SHT30;70041;46.088;18.268;2024-03-22T02:45:25;10.46;69.62
80676;SHT30;70041;46.088;18.268;2024-03-22T02:47:50;10.46;68.96
80676;SHT30;70041;46.088;18.268;2024-03-22T02:50:15;10.47;70.11
80676;SHT30;70041;46.088;18.268;2024-03-22T02:52:41;10.49;69.14
80676;SHT30;70041;46.088;18.268;2024-03-22T02:55:06;10.54;68.13
80676;SHT30;70041;46.088;18.268;2024-03-22T02:57:32;10.59;68.93
80676;SHT30;70041;46.088;18.268;2024-03-22T03:00:00;10.63;69.14
80676;SHT30;70041;46.088;18.268;2024-03-22T03:02:25;10.61;69.28
80676;SHT30;70041;46.088;18.268;2024-03-22T03:04:50;10.60;69.83
80676;SHT30;70041;46.088;18.268;2024-03-22T03:07:16;10.59;70.48
80676;SHT30;70041;46.088;18.268;2024-03-22T03:09:41;10.64;71.26
80676;SHT30;70041;46.088;18.268;2024-03-22T03:12:07;10.75;68.95
80676;SHT30;70041;46.088;18.268;2024-03-22T03:14:32;10.75;68.24
80676;SHT30;70041;46.088;18.268;2024-03-22T03:16:57;10.75;68.84
80676;SHT30;70041;46.088;18.268;2024-03-22T03:19:23;10.77;68.52
80676;SHT30;70041;46.088;18.268;2024-03-22T03:21:48;10.71;68.05
80676;SHT30;70041;46.088;18.268;2024-03-22T03:24:14;10.65;69.14
80676;SHT30;70041;46.088;18.268;2024-03-22T03:26:39;10.73;68.73
80676;SHT30;70041;46.088;18.268;2024-03-22T03:29:04;10.75;69.58
80676;SHT30;70041;46.088;18.268;2024-03-22T03:31:30;10.75;70.02
80676;SHT30;70041;46.088;18.268;2024-03-22T03:33:55;10.78;68.49
80676;SHT30;70041;46.088;18.268;2024-03-22T03:36:20;10.74;67.71
80676;SHT30;70041;46.088;18.268;2024-03-22T03:38:46;10.80;67.57
80676;SHT30;70041;46.088;18.268;2024-03-22T03:41:11;10.83;68.07
80676;SHT30;70041;46.088;18.268;2024-03-22T03:43:37;10.80;68.44
80676;SHT30;70041;46.088;18.268;2024-03-22T03:46:02;10.81;69.10
80676;SHT30;70041;46.088;18.268;2024-03-22T03:48:27;10.77;69.52
80676;SHT30;70041;46.088;18.268;2024-03-22T03:50:53;10.78;69.18
80676;SHT30;70041;46.088;18.268;2024-03-22T03:53:20;10.81;69.65
80676;SHT30;70041;46.088;18.268;2024-03-22T03:55:46;10.90;69.83
80676;SHT30;70041;46.088;18.268;2024-03-22T03:58:11;10.91;70.40
80676;SHT30;70041;46.088;18.268;2024-03-22T04:00:37;10.98;69.26
80676;SHT30;70041;46.088;18.268;2024-03-22T04:03:02;10.97;69.41
80676;SHT30;70041;46.088;18.268;2024-03-22T04:05:28;10.97;70.20
80676;SHT30;70041;46.088;18.268;2024-03-22T04:07:53;11.00;69.21
80676;SHT30;70041;46.088;18.268;2024-03-22T04:10:19;10.97;69.64
80676;SHT30;70041;46.088;18.268;2024-03-22T04:12:44;11.00;68.48
80676;SHT30;70041;46.088;18.268;2024-03-22T04:15:13;11.01;69.14
80676;SHT30;70041;46.088;18.268;2024-03-22T04:17:38;11.01;70.17
80676;SHT30;70041;46.088;18.268;2024-03-22T04:20:04;11.07;68.31
80676;SHT30;70041;46.088;18.268;2024-03-22T04:22:29;11.05;69.20
80676;SHT30;70041;46.088;18.268;2024-03-22T04:24:55;11.07;68.96
80676;SHT30;70041;46.088;18.268;2024-03-22T04:27:20;11.01;70.38
80676;SHT30;70041;46.088;18.268;2024-03-22T04:29:49;11.02;70.26
80676;SHT30;70041;46.088;18.268;2024-03-22T04:32:14;10.97;70.39
80676;SHT30;70041;46.088;18.268;2024-03-22T04:34:43;11.01;69.58
80676;SHT30;70041;46.088;18.268;2024-03-22T04:37:08;11.08;69.83
80676;SHT30;70041;46.088;18.268;2024-03-22T04:39:35;11.07;69.61
80676;SHT30;70041;46.088;18.268;2024-03-22T04:42:01;11.05;70.14
80676;SHT30;70041;46.088;18.268;2024-03-22T04:44:27;11.11;70.05
80676;SHT30;70041;46.088;18.268;2024-03-22T04:46:52;11.18;70.43
80676;SHT30;70041;46.088;18.268;2024-03-22T04:49:17;11.34;70.47
80676;SHT30;70041;46.088;18.268;2024-03-22T04:51:43;11.51;70.48
80676;SHT30;70041;46.088;18.268;2024-03-22T04:54:08;11.82;70.05
80676;SHT30;70041;46.088;18.268;2024-03-22T04:56:34;12.07;69.77
80676;SHT30;70041;46.088;18.268;2024-03-22T04:58:59;12.20;69.36
80676;SHT30;70041;46.088;18.268;2024-03-22T05:01:25;12.20;69.14
80676;SHT30;70041;46.088;18.268;2024-03-22T05:03:50;12.13;69.62
80676;SHT30;70041;46.088;18.268;2024-03-22T05:06:15;12.21;70.00
80676;SHT30;70041;46.088;18.268;2024-03-22T05:08:41;12.23;70.22
80676;SHT30;70041;46.088;18.268;2024-03-22T05:11:07;12.21;70.54
80676;SHT30;70041;46.088;18.268;2024-03-22T05:13:33;12.24;70.65
80676;SHT30;70041;46.088;18.268;2024-03-22T05:15:58;12.18;70.98
80676;SHT30;70041;46.088;18.268;2024-03-22T05:18:24;12.24;71.00
80676;SHT30;70041;46.088;18.268;2024-03-22T05:20:49;12.27;71.05
80676;SHT30;70041;46.088;18.268;2024-03-22T05:23:14;12.30;71.06
80676;SHT30;70041;46.088;18.268;2024-03-22T05:25:42;12.30;71.14
80676;SHT30;70041;46.088;18.268;2024-03-22T05:28:07;12.30;71.29
80676;SHT30;70041;46.088;18.268;2024-03-22T05:30:33;12.38;71.28
80676;SHT30;70041;46.088;18.268;2024-03-22T05:32:58;12.44;71.19
80676;SHT30;70041;46.088;18.268;2024-03-22T05:35:24;12.42;71.30
80676;SHT30;70041;46.088;18.268;2024-03-22T05:37:49;12.48;71.09
80676;SHT30;70041;46.088;18.268;2024-03-22T05:40:16;12.49;71.08
80676;SHT30;70041;46.088;18.268;2024-03-22T05:42:41;12.58;70.99
80676;SHT30;70041;46.088;18.268;2024-03-22T05:45:07;12.55;70.97
80676;SHT30;70041;46.088;18.268;2024-03-22T05:47:33;12.57;70.91
80676;SHT30;70041;46.088;18.268;2024-03-22T05:49:59;12.61;70.88
80676;SHT30;70041;46.088;18.268;2024-03-22T05:52:24;12.62;71.04
80676;SHT30;70041;46.088;18.268;2024-03-22T05:54:50;12.64;71.08
80676;SHT30;70041;46.088;18.268;2024-03-22T05:57:16;12.62;70.89
80676;SHT30;70041;46.088;18.268;2024-03-22T05:59:42;12.69;70.92
80676;SHT30;70041;46.088;18.268;2024-03-22T06:02:07;12.74;71.01
80676;SHT30;70041;46.088;18.268;2024-03-22T06:04:33;12.71;71.24
80676;SHT30;70041;46.088;18.268;2024-03-22T06:07:00;12.75;71.19
80676;SHT30;70041;46.088;18.268;2024-03-22T06:09:28;12.75;71.31
80676;SHT30;70041;46.088;18.268;2024-03-22T06:12:05;12.75;71.44
80676;SHT30;70041;46.088;18.268;2024-03-22T06:14:31;12.78;71.14
80676;SHT30;70041;46.088;18.268;2024-03-22T06:16:56;12.86;71.02
80676;SHT30;70041;46.088;18.268;2024-03-22T06:19:22;12.82;71.15
80676;SHT30;70041;46.088;18.268;2024-03-22T06:21:48;12.84;71.04
80676;SHT30;70041;46.088;18.268;2024-03-22T06:24:14;12.79;71.04
80676;SHT30;70041;46.088;18.268;2024-03-22T06:26:39;12.88;71.00
80676;SHT30;70041;46.088;18.268;2024-03-22T06:29:05;12.95;70.57
80676;SHT30;70041;46.088;18.268;2024-03-22T06:31:30;12.96;70.45
80676;SHT30;70041;46.088;18.268;2024-03-22T06:33:56;13.09;70.28
80676;SHT30;70041;46.088;18.268;2024-03-22T06:36:36;13.08;70.48
80676;SHT30;70041;46.088;18.268;2024-03-22T06:39:01;13.09;70.37
80676;SHT30;70041;46.088;18.268;2024-03-22T06:41:31;13.22;70.03
80676;SHT30;70041;46.088;18.268;2024-03-22T06:43:57;13.24;69.99
80676;SHT30;70041;46.088;18.268;2024-03-22T06:46:22;13.36;69.61
80676;SHT30;70041;46.088;18.268;2024-03-22T06:48:48;13.37;69.90
80676;SHT30;70041;46.088;18.268;2024-03-22T06:51:13;13.39;69.73
80676;SHT30;70041;46.088;18.268;2024-03-22T06:53:39;13.39;69.84
80676;SHT30;70041;46.088;18.268;2024-03-22T06:56:04;13.47;69.19
80676;SHT30;70041;46.088;18.268;2024-03-22T06:58:30;13.42;69.62
80676;SHT30;70041;46.088;18.268;2024-03-22T07:00:55;13.42;69.43
80676;SHT30;70041;46.088;18.268;2024-03-22T07:03:21;13.44;69.45
80676;SHT30;70041;46.088;18.268;2024-03-22T07:05:49;13.42;69.20
80676;SHT30;70041;46.088;18.268;2024-03-22T07:08:14;13.46;69.28
80676;SHT30;70041;46.088;18.268;2024-03-22T07:10:40;13.51;69.15
80676;SHT30;70041;46.088;18.268;2024-03-22T07:13:06;13.49;69.34
80676;SHT30;70041;46.088;18.268;2024-03-22T07:15:34;13.61;69.19
80676;SHT30;70041;46.088;18.268;2024-03-22T07:17:59;13.73;68.81
80676;SHT30;70041;46.088;18.268;2024-03-22T07:20:26;13.77;68.27
80676;SHT30;70041;46.088;18.268;2024-03-22T07:22:51;13.74;68.50
80676;SHT30;70041;46.088;18.268;2024-03-22T07:25:17;13.81;68.38
80676;SHT30;70041;46.088;18.268;2024-03-22T07:27:42;13.91;68.10
80676;SHT30;70041;46.088;18.268;2024-03-22T07:30:08;14.08;67.57
80676;SHT30;70041;46.088;18.268;2024-03-22T07:32:33;14.02;67.54
80676;SHT30;70041;46.088;18.268;2024-03-22T07:34:59;14.11;67.48
80676;SHT30;70041;46.088;18.268;2024-03-22T07:37:24;14.25;66.94
80676;SHT30;70041;46.088;18.268;2024-03-22T07:39:50;14.45;66.48
80676;SHT30;70041;46.088;18.268;2024-03-22T07:42:16;14.46;68.06
80676;SHT30;70041;46.088;18.268;2024-03-22T07:44:42;14.42;66.84
80676;SHT30;70041;46.088;18.268;2024-03-22T07:47:07;14.61;66.44
80676;SHT30;70041;46.088;18.268;2024-03-22T07:49:32;14.65;66.07
80676;SHT30;70041;46.088;18.268;2024-03-22T07:51:59;14.72;65.99
80676;SHT30;70041;46.088;18.268;2024-03-22T07:54:25;14.73;66.88
80676;SHT30;70041;46.088;18.268;2024-03-22T07:56:50;14.76;65.74
80676;SHT30;70041;46.088;18.268;2024-03-22T07:59:16;14.73;65.39
80676;SHT30;70041;46.088;18.268;2024-03-22T08:01:41;14.61;66.06
80676;SHT30;70041;46.088;18.268;2024-03-22T08:04:07;14.53;65.60
80676;SHT30;70041;46.088;18.268;2024-03-22T08:06:33;14.61;65.82
80676;SHT30;70041;46.088;18.268;2024-03-22T08:08:58;14.66;65.30
80676;SHT30;70041;46.088;18.268;2024-03-22T08:11:23;14.61;65.61
80676;SHT30;70041;46.088;18.268;2024-03-22T08:13:49;14.58;65.60
80676;SHT30;70041;46.088;18.268;2024-03-22T08:16:14;14.62;65.31
80676;SHT30;70041;46.088;18.268;2024-03-22T08:18:39;14.48;65.96
80676;SHT30;70041;46.088;18.268;2024-03-22T08:21:05;14.42;66.27
80676;SHT30;70041;46.088;18.268;2024-03-22T08:23:30;14.42;66.24
80676;SHT30;70041;46.088;18.268;2024-03-22T08:25:58;14.48;66.02
80676;SHT30;70041;46.088;18.268;2024-03-22T08:28:23;14.49;65.63
80676;SHT30;70041;46.088;18.268;2024-03-22T08:30:49;14.58;65.50
80676;SHT30;70041;46.088;18.268;2024-03-22T08:33:14;14.49;65.76
80676;SHT30;70041;46.088;18.268;2024-03-22T08:35:40;14.52;65.86
80676;SHT30;70041;46.088;18.268;2024-03-22T08:38:06;14.55;65.33
80676;SHT30;70041;46.088;18.268;2024-03-22T08:40:37;14.56;65.53
80676;SHT30;70041;46.088;18.268;2024-03-22T08:43:03;14.63;65.32
80676;SHT30;70041;46.088;18.268;2024-03-22T08:45:28;14.69;65.11
80676;SHT30;70041;46.088;18.268;2024-03-22T08:47:54;14.79;64.76
80676;SHT30;70041;46.088;18.268;2024-03-22T08:50:19;14.77;64.83
80676;SHT30;70041;46.088;18.268;2024-03-22T08:52:45;14.89;64.62
80676;SHT30;70041;46.088;18.268;2024-03-22T08:55:11;14.86;64.89
80676;SHT30;70041;46.088;18.268;2024-03-22T08:57:36;14.94;64.22
80676;SHT30;70041;46.088;18.268;2024-03-22T09:00:02;15.00;64.26
80676;SHT30;70041;46.088;18.268;2024-03-22T09:02:28;15.03;63.82
80676;SHT30;70041;46.088;18.268;2024-03-22T09:04:53;15.16;63.34
80676;SHT30;70041;46.088;18.268;2024-03-22T09:07:19;15.26;63.05
80676;SHT30;70041;46.088;18.268;2024-03-22T09:09:45;15.14;62.86
80676;SHT30;70041;46.088;18.268;2024-03-22T09:12:10;15.10;62.82
80676;SHT30;70041;46.088;18.268;2024-03-22T09:14:35;15.27;62.45
80676;SHT30;70041;46.088;18.268;2024-03-22T09:17:01;15.47;63.07
80676;SHT30;70041;46.088;18.268;2024-03-22T09:19:26;15.51;62.18
80676;SHT30;70041;46.088;18.268;2024-03-22T09:21:52;15.65;61.96
80676;SHT30;70041;46.088;18.268;2024-03-22T09:24:18;15.88;61.09
80676;SHT30;70041;46.088;18.268;2024-03-22T09:26:43;15.96;60.96
80676;SHT30;70041;46.088;18.268;2024-03-22T09:29:08;15.95;60.92
80676;SHT30;70041;46.088;18.268;2024-03-22T09:31:34;16.04;61.18
80676;SHT30;70041;46.088;18.268;2024-03-22T09:33:59;16.19;60.81
80676;SHT30;70041;46.088;18.268;2024-03-22T09:36:24;16.16;60.84
80676;SHT30;70041;46.088;18.268;2024-03-22T09:38:50;16.06;61.09
80676;SHT30;70041;46.088;18.268;2024-03-22T09:41:24;16.06;61.36
80676;SHT30;70041;46.088;18.268;2024-03-22T09:43:51;15.96;61.46
80676;SHT30;70041;46.088;18.268;2024-03-22T09:46:18;15.88;61.15
80676;SHT30;70041;46.088;18.268;2024-03-22T09:48:47;15.68;61.76
80676;SHT30;70041;46.088;18.268;2024-03-22T09:51:13;15.79;61.64
80676;SHT30;70041;46.088;18.268;2024-03-22T09:53:40;15.92;61.79
80676;SHT30;70041;46.088;18.268;2024-03-22T09:56:08;15.85;62.05
80676;SHT30;70041;46.088;18.268;2024-03-22T09:58:34;16.09;61.27
80676;SHT30;70041;46.088;18.268;2024-03-22T10:00:59;16.23;60.98
80676;SHT30;70041;46.088;18.268;2024-03-22T10:03:26;16.34;60.72
80676;SHT30;70041;46.088;18.268;2024-03-22T10:05:52;16.46;60.09
80676;SHT30;70041;46.088;18.268;2024-03-22T10:08:17;16.57;60.21
80676;SHT30;70041;46.088;18.268;2024-03-22T10:10:43;16.66;61.04
80676;SHT30;70041;46.088;18.268;2024-03-22T10:13:08;16.78;60.59
80676;SHT30;70041;46.088;18.268;2024-03-22T10:15:34;16.83;59.63
80676;SHT30;70041;46.088;18.268;2024-03-22T10:17:59;16.84;59.22
80676;SHT30;70041;46.088;18.268;2024-03-22T10:20:25;16.84;59.52
80676;SHT30;70041;46.088;18.268;2024-03-22T10:22:58;16.78;59.39
80676;SHT30;70041;46.088;18.268;2024-03-22T10:25:25;16.55;60.21
80676;SHT30;70041;46.088;18.268;2024-03-22T10:27:50;16.43;61.02
80676;SHT30;70041;46.088;18.268;2024-03-22T10:30:16;16.50;60.64
80676;SHT30;70041;46.088;18.268;2024-03-22T10:32:43;16.49;61.06
80676;SHT30;70041;46.088;18.268;2024-03-22T10:35:12;16.49;61.34
80676;SHT30;70041;46.088;18.268;2024-03-22T10:37:38;16.29;61.27
80676;SHT30;70041;46.088;18.268;2024-03-22T10:40:04;16.33;60.80
80676;SHT30;70041;46.088;18.268;2024-03-22T10:42:37;16.30;61.41
80676;SHT30;70041;46.088;18.268;2024-03-22T10:45:04;16.39;60.80
80676;SHT30;70041;46.088;18.268;2024-03-22T10:47:32;16.36;61.15
80676;SHT30;70041;46.088;18.268;2024-03-22T10:50:08;16.33;61.53
80676;SHT30;70041;46.088;18.268;2024-03-22T10:55:16;16.39;60.90
80676;SHT30;70041;46.088;18.268;2024-03-22T10:57:44;16.52;60.65
80676;SHT30;70041;46.088;18.268;2024-03-22T11:00:10;16.81;59.60
80676;SHT30;70041;46.088;18.268;2024-03-22T11:02:36;16.92;59.39
80676;SHT30;70041;46.088;18.268;2024-03-22T11:05:05;17.06;59.68
80676;SHT30;70041;46.088;18.268;2024-03-22T11:07:32;17.35;58.70
80676;SHT30;70041;46.088;18.268;2024-03-22T11:10:00;17.80;57.39
80676;SHT30;70041;46.088;18.268;2024-03-22T11:12:28;17.89;55.69
80676;SHT30;70041;46.088;18.268;2024-03-22T11:14:55;17.85;56.75
80676;SHT30;70041;46.088;18.268;2024-03-22T11:17:21;17.86;55.97
80676;SHT30;70041;46.088;18.268;2024-03-22T11:19:50;17.79;54.65
80676;SHT30;70041;46.088;18.268;2024-03-22T11:22:16;17.48;55.78
80676;SHT30;70041;46.088;18.268;2024-03-22T11:24:41;17.28;56.66
80676;SHT30;70041;46.088;18.268;2024-03-22T11:27:07;17.07;57.32
80676;SHT30;70041;46.088;18.268;2024-03-22T11:29:32;17.32;56.90
80676;SHT30;70041;46.088;18.268;2024-03-22T11:31:59;17.76;55.88
80676;SHT30;70041;46.088;18.268;2024-03-22T11:34:25;18.47;53.85
80676;SHT30;70041;46.088;18.268;2024-03-22T11:36:51;18.82;52.73
80676;SHT30;70041;46.088;18.268;2024-03-22T11:39:16;19.25;51.67
80676;SHT30;70041;46.088;18.268;2024-03-22T11:41:43;18.96;51.56
80676;SHT30;70041;46.088;18.268;2024-03-22T11:44:09;18.72;52.31
80676;SHT30;70041;46.088;18.268;2024-03-22T11:46:35;18.64;52.42
80676;SHT30;70041;46.088;18.268;2024-03-22T11:49:00;18.81;51.51
80676;SHT30;70041;46.088;18.268;2024-03-22T11:51:26;19.11;49.93
80676;SHT30;70041;46.088;18.268;2024-03-22T11:53:52;19.27;49.42
80676;SHT30;70041;46.088;18.268;2024-03-22T11:56:19;19.56;48.69
80676;SHT30;70041;46.088;18.268;2024-03-22T11:58:46;19.66;49.45
80676;SHT30;70041;46.088;18.268;2024-03-22T12:01:13;19.71;48.66
80676;SHT30;70041;46.088;18.268;2024-03-22T12:03:39;19.53;48.32
80676;SHT30;70041;46.088;18.268;2024-03-22T12:06:06;19.62;48.40
80676;SHT30;70041;46.088;18.268;2024-03-22T12:08:31;19.55;49.69
80676;SHT30;70041;46.088;18.268;2024-03-22T12:10:56;19.39;48.97
80676;SHT30;70041;46.088;18.268;2024-03-22T12:13:22;19.39;48.69
80676;SHT30;70041;46.088;18.268;2024-03-22T12:15:47;19.52;48.55
80676;SHT30;70041;46.088;18.268;2024-03-22T12:18:13;19.66;47.86
80676;SHT30;70041;46.088;18.268;2024-03-22T12:20:38;19.84;48.94
80676;SHT30;70041;46.088;18.268;2024-03-22T12:23:04;19.88;48.09
80676;SHT30;70041;46.088;18.268;2024-03-22T12:25:29;19.80;48.54
80676;SHT30;70041;46.088;18.268;2024-03-22T12:27:55;19.67;48.55
80676;SHT30;70041;46.088;18.268;2024-03-22T12:30:20;19.67;49.51
80676;SHT30;70041;46.088;18.268;2024-03-22T12:32:46;19.91;48.66
80676;SHT30;70041;46.088;18.268;2024-03-22T12:35:12;20.04;49.60
80676;SHT30;70041;46.088;18.268;2024-03-22T12:37:37;20.10;47.35
80676;SHT30;70041;46.088;18.268;2024-03-22T12:40:03;19.98;47.57
80676;SHT30;70041;46.088;18.268;2024-03-22T12:42:29;19.77;47.65
80676;SHT30;70041;46.088;18.268;2024-03-22T12:44:54;19.83;48.66
80676;SHT30;70041;46.088;18.268;2024-03-22T12:47:20;19.52;48.06
80676;SHT30;70041;46.088;18.268;2024-03-22T12:49:45;19.49;48.45
80676;SHT30;70041;46.088;18.268;2024-03-22T12:52:11;19.19;49.32
80676;SHT30;70041;46.088;18.268;2024-03-22T12:54:36;19.12;49.67
80676;SHT30;70041;46.088;18.268;2024-03-22T12:57:02;19.01;51.18
80676;SHT30;70041;46.088;18.268;2024-03-22T12:59:27;18.96;49.15
80676;SHT30;70041;46.088;18.268;2024-03-22T13:01:52;18.87;48.54
80676;SHT30;70041;46.088;18.268;2024-03-22T13:04:18;18.76;48.54
80676;SHT30;70041;46.088;18.268;2024-03-22T13:06:44;18.72;48.74
80676;SHT30;70041;46.088;18.268;2024-03-22T13:09:10;18.78;48.97
80676;SHT30;70041;46.088;18.268;2024-03-22T13:11:36;18.79;49.43
80676;SHT30;70041;46.088;18.268;2024-03-22T13:14:02;18.82;49.17
80676;SHT30;70041;46.088;18.268;2024-03-22T13:16:27;19.06;49.91
80676;SHT30;70041;46.088;18.268;2024-03-22T13:18:53;19.29;48.67
80676;SHT30;70041;46.088;18.268;2024-03-22T13:21:19;19.32;48.71
80676;SHT30;70041;46.088;18.268;2024-03-22T13:23:44;19.70;46.50
80676;SHT30;70041;46.088;18.268;2024-03-22T13:26:10;19.91;47.79
80676;SHT30;70041;46.088;18.268;2024-03-22T13:28:35;19.86;49.25
80676;SHT30;70041;46.088;18.268;2024-03-22T13:31:04;19.64;48.14
80676;SHT30;70041;46.088;18.268;2024-03-22T13:33:33;19.52;48.45
80676;SHT30;70041;46.088;18.268;2024-03-22T13:36:00;19.46;47.11
80676;SHT30;70041;46.088;18.268;2024-03-22T13:38:25;19.50;48.65
80676;SHT30;70041;46.088;18.268;2024-03-22T13:40:58;19.20;46.89
80676;SHT30;70041;46.088;18.268;2024-03-22T13:43:26;19.13;47.24
80676;SHT30;70041;46.088;18.268;2024-03-22T13:45:53;19.27;50.05
80676;SHT30;70041;46.088;18.268;2024-03-22T13:48:20;19.26;46.65
80676;SHT30;70041;46.088;18.268;2024-03-22T13:50:47;19.35;47.19
80676;SHT30;70041;46.088;18.268;2024-03-22T13:53:13;19.26;46.03
80676;SHT30;70041;46.088;18.268;2024-03-22T13:55:40;19.40;46.10
80676;SHT30;70041;46.088;18.268;2024-03-22T13:58:07;19.27;47.29
80676;SHT30;70041;46.088;18.268;2024-03-22T14:00:33;19.26;46.98
80676;SHT30;70041;46.088;18.268;2024-03-22T14:02:58;19.55;47.27
80676;SHT30;70041;46.088;18.268;2024-03-22T14:05:24;19.56;48.78
80676;SHT30;70041;46.088;18.268;2024-03-22T14:07:50;19.62;47.08
80676;SHT30;70041;46.088;18.268;2024-03-22T14:10:16;19.78;46.24
80676;SHT30;70041;46.088;18.268;2024-03-22T14:12:45;19.84;46.12
80676;SHT30;70041;46.088;18.268;2024-03-22T14:15:11;19.80;45.80
80676;SHT30;70041;46.088;18.268;2024-03-22T14:17:36;19.77;46.40
80676;SHT30;70041;46.088;18.268;2024-03-22T14:20:01;19.84;45.25
80676;SHT30;70041;46.088;18.268;2024-03-22T14:22:30;19.96;44.45
80676;SHT30;70041;46.088;18.268;2024-03-22T14:24:56;19.80;44.11
80676;SHT30;70041;46.088;18.268;2024-03-22T14:27:21;19.64;44.17
80676;SHT30;70041;46.088;18.268;2024-03-22T14:29:47;19.57;44.57
80676;SHT30;70041;46.088;18.268;2024-03-22T14:32:12;19.60;44.96
80676;SHT30;70041;46.088;18.268;2024-03-22T14:34:38;19.62;44.10
80676;SHT30;70041;46.088;18.268;2024-03-22T14:37:03;19.66;43.70
80676;SHT30;70041;46.088;18.268;2024-03-22T14:39:29;19.63;44.02
80676;SHT30;70041;46.088;18.268;2024-03-22T14:41:54;19.60;44.42
80676;SHT30;70041;46.088;18.268;2024-03-22T14:44:20;19.56;45.01
80676;SHT30;70041;46.088;18.268;2024-03-22T14:46:45;19.39;44.86
80676;SHT30;70041;46.088;18.268;2024-03-22T14:49:12;19.33;45.01
80676;SHT30;70041;46.088;18.268;2024-03-22T14:51:37;19.13;45.57
80676;SHT30;70041;46.088;18.268;2024-03-22T14:54:02;19.05;45.27
80676;SHT30;70041;46.088;18.268;2024-03-22T14:56:30;19.16;45.37
80676;SHT30;70041;46.088;18.268;2024-03-22T14:58:55;19.16;44.70
80676;SHT30;70041;46.088;18.268;2024-03-22T15:01:22;19.09;44.49
80676;SHT30;70041;46.088;18.268;2024-03-22T15:03:48;19.46;44.71
80676;SHT30;70041;46.088;18.268;2024-03-22T15:06:15;19.76;44.12
80676;SHT30;70041;46.088;18.268;2024-03-22T15:08:40;19.64;43.74
80676;SHT30;70041;46.088;18.268;2024-03-22T15:11:06;19.43;44.64